sensor_id;sensor_type;location;lat;lon;timestamp;temperature;humidity
22850;DHT22;11591;44.792;10.358;2022-12-07T00:01:08;7.50;99.90
22850;DHT22;11591;44.792;10.358;2022-12-07T00:03:35;7.50;99.90
22850;DHT22;11591;44.792;10.358;2022-12-07T00:06:02;7.50;99.90
22850;DHT22;11591;44.792;10.358;2022-12-07T00:08:29;7.50;99.90
22850;DHT22;11591;44.792;10.358;2022-12-07T00:10:59;7.50;99.90
22850;DHT22;11591;44.792;10.358;2022-12-07T00:13:25;7.50;99.90
22850;DHT22;11591;44.792;10.358;2022-12-07T00:15:51;7.40;99.90
22850;DHT22;11591;44.792;10.358;2022-12-07T00:18:17;7.40;99.90
22850;DHT22;11591;44.792;10.358;2022-12-07T00:20:43;7.40;99.90
22850;DHT22;11591;44.792;10.358;2022-12-07T00:23:08;7.40;99.90
22850;DHT22;11591;44.792;10.358;2022-12-07T00:25:34;7.40;99.90
22850;DHT22;11591;44.792;10.358;2022-12-07T00:28:00;7.40;99.90
22850;DHT22;11591;44.792;10.358;2022-12-07T00:30:26;7.40;99.90
22850;DHT22;11591;44.792;10.358;2022-12-07T00:32:51;7.40;99.90
22850;DHT22;11591;44.792;10.358;2022-12-07T00:35:17;7.40;99.90
22850;DHT22;11591;44.792;10.358;2022-12-07T00:37:43;7.40;99.90
22850;DHT22;11591;44.792;10.358;2022-12-07T00:40:09;7.30;99.90
22850;DHT22;11591;44.792;10.358;2022-12-07T00:42:35;7.30;99.90
22850;DHT22;11591;44.792;10.358;2022-12-07T00:45:01;7.20;99.90
22850;DHT22;11591;44.792;10.358;2022-12-07T00:47:27;7.10;99.90
22850;DHT22;11591;44.792;10.358;2022-12-07T00:49:53;7.10;99.90
22850;DHT22;11591;44.792;10.358;2022-12-07T00:52:18;7.10;99.90
22850;DHT22;11591;44.792;10.358;2022-12-07T00:54:44;7.10;99.90
22850;DHT22;11591;44.792;10.358;2022-12-07T00:57:10;7.10;99.90
22850;DHT22;11591;44.792;10.358;2022-12-07T00:59:36;7.10;99.90
22850;DHT22;11591;44.792;10.358;2022-12-07T01:02:02;7.10;99.90
22850;DHT22;11591;44.792;10.358;2022-12-07T01:04:27;7.10;99.90
22850;DHT22;11591;44.792;10.358;2022-12-07T01:06:53;7.10;99.90
22850;DHT22;11591;44.792;10.358;2022-12-07T01:09:19;7.10;99.90
22850;DHT22;11591;44.792;10.358;2022-12-07T01:11:45;7.00;99.90
22850;DHT22;11591;44.792;10.358;2022-12-07T01:14:11;7.10;99.90
22850;DHT22;11591;44.792;10.358;2022-12-07T01:16:38;7.10;99.90
22850;DHT22;11591;44.792;10.358;2022-12-07T01:19:05;7.00;99.90
22850;DHT22;11591;44.792;10.358;2022-12-07T01:21:33;7.10;99.90
22850;DHT22;11591;44.792;10.358;2022-12-07T01:24:04;7.10;99.90
22850;DHT22;11591;44.792;10.358;2022-12-07T01:26:31;7.00;99.90
22850;DHT22;11591;44.792;10.358;2022-12-07T01:28:57;7.00;99.90
22850;DHT22;11591;44.792;10.358;2022-12-07T01:31:26;7.00;99.90
22850;DHT22;11591;44.792;10.358;2022-12-07T01:33:54;6.90;99.90
22850;DHT22;11591;44.792;10.358;2022-12-07T01:36:26;6.90;99.90
22850;DHT22;11591;44.792;10.358;2022-12-07T01:38:58;6.90;99.90
22850;DHT22;11591;44.792;10.358;2022-12-07T01:41:27;6.80;99.90
22850;DHT22;11591;44.792;10.358;2022-12-07T01:44:24;6.90;99.90
22850;DHT22;11591;44.792;10.358;2022-12-07T01:49:36;7.00;99.90
22850;DHT22;11591;44.792;10.358;2022-12-07T01:52:26;7.00;99.90
22850;DHT22;11591;44.792;10.358;2022-12-07T01:55:01;7.00;99.90
22850;DHT22;11591;44.792;10.358;2022-12-07T01:57:28;6.90;99.90
22850;DHT22;11591;44.792;10.358;2022-12-07T01:59:56;7.00;99.90
22850;DHT22;11591;44.792;10.358;2022-12-07T02:02:29;7.00;99.90
22850;DHT22;11591;44.792;10.358;2022-12-07T02:05:00;7.00;99.90
22850;DHT22;11591;44.792;10.358;2022-12-07T02:07:27;7.00;99.90
22850;DHT22;11591;44.792;10.358;2022-12-07T02:09:53;7.00;99.90
22850;DHT22;11591;44.792;10.358;2022-12-07T02:12:20;7.00;99.90
22850;DHT22;11591;44.792;10.358;2022-12-07T02:14:46;6.90;99.90
22850;DHT22;11591;44.792;10.358;2022-12-07T02:17:32;6.90;99.90
22850;DHT22;11591;44.792;10.358;2022-12-07T02:28:04;6.80;99.90
22850;DHT22;11591;44.792;10.358;2022-12-07T02:30:33;6.80;99.90
22850;DHT22;11591;44.792;10.358;2022-12-07T02:33:08;6.80;99.90
22850;DHT22;11591;44.792;10.358;2022-12-07T02:35:41;6.80;99.90
22850;DHT22;11591;44.792;10.358;2022-12-07T02:38:27;6.70;99.90
22850;DHT22;11591;44.792;10.358;2022-12-07T02:43:43;6.80;99.90
22850;DHT22;11591;44.792;10.358;2022-12-07T02:46:21;6.80;99.90
22850;DHT22;11591;44.792;10.358;2022-12-07T02:48:50;6.80;99.90
22850;DHT22;11591;44.792;10.358;2022-12-07T02:51:18;6.90;99.90
22850;DHT22;11591;44.792;10.358;2022-12-07T02:53:44;6.90;99.90
22850;DHT22;11591;44.792;10.358;2022-12-07T03:07:01;6.80;99.90
22850;DHT22;11591;44.792;10.358;2022-12-07T03:09:42;6.80;99.90
22850;DHT22;11591;44.792;10.358;2022-12-07T03:12:22;6.70;99.90
22850;DHT22;11591;44.792;10.358;2022-12-07T03:15:14;6.70;99.90
22850;DHT22;11591;44.792;10.358;2022-12-07T03:17:44;6.70;99.90
22850;DHT22;11591;44.792;10.358;2022-12-07T03:20:13;6.60;99.90
22850;DHT22;11591;44.792;10.358;2022-12-07T03:22:42;6.60;99.90
22850;DHT22;11591;44.792;10.358;2022-12-07T03:25:12;6.60;99.90
22850;DHT22;11591;44.792;10.358;2022-12-07T03:27:58;6.40;99.90
22850;DHT22;11591;44.792;10.358;2022-12-07T03:30:41;6.40;99.90
22850;DHT22;11591;44.792;10.358;2022-12-07T03:33:31;6.30;99.90
22850;DHT22;11591;44.792;10.358;2022-12-07T03:36:06;6.20;99.90
22850;DHT22;11591;44.792;10.358;2022-12-07T03:38:50;6.30;99.90
22850;DHT22;11591;44.792;10.358;2022-12-07T03:41:23;6.30;99.90
22850;DHT22;11591;44.792;10.358;2022-12-07T03:43:50;6.30;99.90
22850;DHT22;11591;44.792;10.358;2022-12-07T03:54:57;5.90;99.90
22850;DHT22;11591;44.792;10.358;2022-12-07T03:57:26;5.90;99.90
22850;DHT22;11591;44.792;10.358;2022-12-07T03:59:55;6.00;99.90
22850;DHT22;11591;44.792;10.358;2022-12-07T04:02:22;6.00;99.90
22850;DHT22;11591;44.792;10.358;2022-12-07T04:04:49;6.00;99.90
22850;DHT22;11591;44.792;10.358;2022-12-07T04:07:15;6.00;99.90
22850;DHT22;11591;44.792;10.358;2022-12-07T04:09:41;6.10;99.90
22850;DHT22;11591;44.792;10.358;2022-12-07T04:12:07;6.20;99.90
22850;DHT22;11591;44.792;10.358;2022-12-07T04:14:33;6.30;99.90
22850;DHT22;11591;44.792;10.358;2022-12-07T04:16:59;6.30;99.90
22850;DHT22;11591;44.792;10.358;2022-12-07T04:19:27;6.40;99.90
22850;DHT22;11591;44.792;10.358;2022-12-07T04:21:54;6.50;99.90
22850;DHT22;11591;44.792;10.358;2022-12-07T04:24:20;6.60;99.90
22850;DHT22;11591;44.792;10.358;2022-12-07T04:26:46;6.50;99.90
22850;DHT22;11591;44.792;10.358;2022-12-07T04:29:13;6.30;99.90
22850;DHT22;11591;44.792;10.358;2022-12-07T04:31:39;6.30;99.90
22850;DHT22;11591;44.792;10.358;2022-12-07T04:34:06;6.30;99.90
22850;DHT22;11591;44.792;10.358;2022-12-07T04:36:32;6.30;99.90
22850;DHT22;11591;44.792;10.358;2022-12-07T04:38:59;6.20;99.90
22850;DHT22;11591;44.792;10.358;2022-12-07T04:41:25;6.10;99.90
22850;DHT22;11591;44.792;10.358;2022-12-07T04:43:58;6.10;99.90
22850;DHT22;11591;44.792;10.358;2022-12-07T04:46:26;6.00;99.90
22850;DHT22;11591;44.792;10.358;2022-12-07T04:48:53;6.00;99.90
22850;DHT22;11591;44.792;10.358;2022-12-07T04:51:22;6.00;99.90
22850;DHT22;11591;44.792;10.358;2022-12-07T04:53:48;6.00;99.90
22850;DHT22;11591;44.792;10.358;2022-12-07T04:56:15;6.10;99.90
22850;DHT22;11591;44.792;10.358;2022-12-07T04:58:42;6.00;99.90
22850;DHT22;11591;44.792;10.358;2022-12-07T05:01:09;6.00;99.90
22850;DHT22;11591;44.792;10.358;2022-12-07T05:03:36;6.10;99.90
22850;DHT22;11591;44.792;10.358;2022-12-07T05:06:03;6.00;99.90
22850;DHT22;11591;44.792;10.358;2022-12-07T05:08:29;6.00;99.90
22850;DHT22;11591;44.792;10.358;2022-12-07T05:10:55;5.90;99.90
22850;DHT22;11591;44.792;10.358;2022-12-07T05:13:21;6.00;99.90
22850;DHT22;11591;44.792;10.358;2022-12-07T05:15:48;5.90;99.90
22850;DHT22;11591;44.792;10.358;2022-12-07T05:18:14;6.00;99.90
22850;DHT22;11591;44.792;10.358;2022-12-07T05:20:41;6.00;99.90
22850;DHT22;11591;44.792;10.358;2022-12-07T05:23:07;5.90;99.90
22850;DHT22;11591;44.792;10.358;2022-12-07T05:25:33;5.90;99.90
22850;DHT22;11591;44.792;10.358;2022-12-07T05:27:59;5.90;99.90
22850;DHT22;11591;44.792;10.358;2022-12-07T05:30:25;5.90;99.90
22850;DHT22;11591;44.792;10.358;2022-12-07T05:32:51;6.00;99.90
22850;DHT22;11591;44.792;10.358;2022-12-07T05:35:18;6.10;99.90
22850;DHT22;11591;44.792;10.358;2022-12-07T05:37:44;6.00;99.90
22850;DHT22;11591;44.792;10.358;2022-12-07T05:40:11;5.80;99.90
22850;DHT22;11591;44.792;10.358;2022-12-07T05:42:38;5.80;99.90
22850;DHT22;11591;44.792;10.358;2022-12-07T05:45:04;5.90;99.90
22850;DHT22;11591;44.792;10.358;2022-12-07T05:47:31;5.70;99.90
22850;DHT22;11591;44.792;10.358;2022-12-07T05:49:57;5.70;99.90
22850;DHT22;11591;44.792;10.358;2022-12-07T05:52:23;5.60;99.90
22850;DHT22;11591;44.792;10.358;2022-12-07T05:54:49;5.50;99.90
22850;DHT22;11591;44.792;10.358;2022-12-07T05:57:15;5.30;99.90
22850;DHT22;11591;44.792;10.358;2022-12-07T05:59:41;5.20;99.90
22850;DHT22;11591;44.792;10.358;2022-12-07T06:02:09;5.10;99.90
22850;DHT22;11591;44.792;10.358;2022-12-07T06:04:38;5.10;99.90
22850;DHT22;11591;44.792;10.358;2022-12-07T06:07:05;5.20;99.90
22850;DHT22;11591;44.792;10.358;2022-12-07T06:09:31;5.30;99.90
22850;DHT22;11591;44.792;10.358;2022-12-07T06:11:57;5.30;99.90
22850;DHT22;11591;44.792;10.358;2022-12-07T06:14:42;5.30;99.90
22850;DHT22;11591;44.792;10.358;2022-12-07T06:17:09;5.30;99.90
22850;DHT22;11591;44.792;10.358;2022-12-07T06:19:35;5.30;99.90
22850;DHT22;11591;44.792;10.358;2022-12-07T06:22:01;5.30;99.90
22850;DHT22;11591;44.792;10.358;2022-12-07T06:24:27;5.30;99.90
22850;DHT22;11591;44.792;10.358;2022-12-07T06:26:52;5.40;99.90
22850;DHT22;11591;44.792;10.358;2022-12-07T06:29:18;5.40;99.90
22850;DHT22;11591;44.792;10.358;2022-12-07T06:31:45;5.30;99.90
22850;DHT22;11591;44.792;10.358;2022-12-07T06:34:17;5.30;99.90
22850;DHT22;11591;44.792;10.358;2022-12-07T06:36:43;5.30;99.90
22850;DHT22;11591;44.792;10.358;2022-12-07T06:39:10;5.30;99.90
22850;DHT22;11591;44.792;10.358;2022-12-07T06:41:37;5.30;99.90
22850;DHT22;11591;44.792;10.358;2022-12-07T06:44:07;5.30;99.90
22850;DHT22;11591;44.792;10.358;2022-12-07T06:46:33;5.30;99.90
22850;DHT22;11591;44.792;10.358;2022-12-07T06:49:01;5.30;99.90
22850;DHT22;11591;44.792;10.358;2022-12-07T06:51:27;5.30;99.90
